Time;durP1;ratioP1;P1;durP2;ratioP2;P2;SDS_P1;SDS_P2;PMS_P1;PMS_P2;Temp;Humidity;BMP_temperature;BMP_pressure;BME280_temperature;BME280_humidity;BME280_pressure;Samples;Min_cycle;Max_cycle;Signal;HPM_P1;HPM_P2
2023/06/18 00:01:46;;;;;;;5.93;3.25;;;;;;;22.29;50.72;101291.53;5130081;27;20084;-38
2023/06/18 00:04:12;;;;;;;5.47;3.33;;;;;;;22.16;50.98;101278.53;5129809;27;20400;-37
2023/06/18 00:06:37;;;;;;;3.80;3.30;;;;;;;22.19;51.10;101288.13;5129930;27;20032;-37
2023/06/18 00:09:03;;;;;;;4.22;3.47;;;;;;;22.20;51.02;101287.81;5129744;27;20103;-37
2023/06/18 00:11:28;;;;;;;5.15;3.47;;;;;;;22.07;51.25;101289.38;5120018;27;20035;-37
2023/06/18 00:13:53;;;;;;;6.43;3.72;;;;;;;22.06;51.70;101298.75;5115876;28;20433;-37
2023/06/18 00:16:19;;;;;;;4.88;3.38;;;;;;;22.04;52.03;101295.47;5115920;28;20042;-37
2023/06/18 00:18:44;;;;;;;5.07;3.67;;;;;;;21.98;52.19;101293.09;5115425;28;20047;-37
2023/06/18 00:21:11;;;;;;;8.93;3.78;;;;;;;21.98;52.15;101295.84;5116221;28;20067;-37
2023/06/18 00:23:37;;;;;;;5.55;4.13;;;;;;;21.89;53.27;101286.59;5115403;28;20019;-37
2023/06/18 00:26:02;;;;;;;7.35;3.88;;;;;;;21.88;53.02;101284.97;5115712;28;20106;-37
2023/06/18 00:28:28;;;;;;;6.65;3.65;;;;;;;21.96;52.37;101287.03;5115394;28;20114;-37
2023/06/18 00:30:54;;;;;;;4.80;3.97;;;;;;;21.83;53.19;101288.63;5115566;28;20032;-37
2023/06/18 00:33:20;;;;;;;6.35;4.00;;;;;;;21.89;53.00;101281.09;5115814;28;20084;-37
2023/06/18 00:35:46;;;;;;;5.53;4.30;;;;;;;21.75;53.84;101286.50;5115909;28;20031;-37
2023/06/18 00:38:11;;;;;;;5.00;3.55;;;;;;;21.72;54.50;101276.94;5115290;28;20344;-37
2023/06/18 00:40:37;;;;;;;4.05;3.45;;;;;;;21.78;53.89;101288.69;5115613;28;20039;-37
2023/06/18 00:43:03;;;;;;;4.32;3.83;;;;;;;21.71;54.14;101278.00;5115308;28;20028;-37
2023/06/18 00:45:29;;;;;;;7.20;3.85;;;;;;;21.70;54.68;101278.31;5115008;28;20032;-37
2023/06/18 00:47:54;;;;;;;5.85;4.20;;;;;;;21.68;54.43;101275.88;5115908;28;20043;-37
2023/06/18 00:50:21;;;;;;;8.27;4.47;;;;;;;21.40;54.89;101241.81;5115951;27;20042;-37
2023/06/18 00:52:51;;;;;;;5.07;4.22;;;;;;;21.42;55.27;101267.09;5115104;28;20028;-37
2023/06/18 00:55:16;;;;;;;6.03;4.25;;;;;;;21.43;55.43;101268.75;5115405;28;20427;-37
2023/06/18 00:57:44;;;;;;;5.97;4.32;;;;;;;21.44;55.25;101258.56;5115365;28;20020;-37
2023/06/18 01:00:12;;;;;;;5.53;4.03;;;;;;;21.39;55.86;101261.38;5115488;28;20135;-37
2023/06/18 01:02:45;;;;;;;7.22;4.40;;;;;;;21.34;55.63;101256.75;5115719;28;20036;-37
2023/06/18 01:05:12;;;;;;;5.95;4.28;;;;;;;21.36;55.94;101262.78;5115564;27;20037;-37
2023/06/18 01:07:39;;;;;;;4.60;4.03;;;;;;;21.25;55.82;101255.72;5115601;28;20027;-37
2023/06/18 01:10:05;;;;;;;6.15;4.43;;;;;;;21.28;56.27;101249.66;5114510;28;20027;-37
2023/06/18 01:12:31;;;;;;;5.50;4.47;;;;;;;21.23;56.33;101258.78;5115309;28;20066;-37
2023/06/18 01:14:57;;;;;;;6.00;4.35;;;;;;;21.22;56.61;101273.63;5114756;28;20411;-37
2023/06/18 01:17:29;;;;;;;5.28;4.35;;;;;;;21.16;56.84;101263.81;5115356;28;20049;-37
2023/06/18 01:20:00;;;;;;;5.05;4.30;;;;;;;21.09;56.84;101249.59;5114541;28;20050;-37
2023/06/18 01:22:37;;;;;;;5.53;4.38;;;;;;;21.00;57.11;101249.41;5113368;28;20023;-37
2023/06/18 01:25:05;;;;;;;6.10;4.00;;;;;;;21.05;57.78;101249.34;5114310;28;20027;-37
2023/06/18 01:27:33;;;;;;;5.25;4.30;;;;;;;20.98;57.80;101253.53;5114411;28;20091;-37
2023/06/18 01:30:00;;;;;;;6.90;4.53;;;;;;;20.93;57.78;101251.66;5114129;28;20027;-37
2023/06/18 01:32:26;;;;;;;5.22;4.22;;;;;;;20.95;57.69;101256.88;5114079;28;20125;-37
2023/06/18 01:34:55;;;;;;;5.25;3.80;;;;;;;20.87;58.14;101250.09;5114785;28;20428;-37
2023/06/18 01:38:02;;;;;;;6.93;4.18;;;;;;;20.94;57.63;101252.50;5113926;28;20478;-37
2023/06/18 01:40:39;;;;;;;7.85;4.75;;;;;;;20.77;58.25;101223.50;5105120;27;20391;-37
2023/06/18 01:43:09;;;;;;;6.40;4.43;;;;;;;20.87;58.71;101249.25;5114192;28;20030;-37
2023/06/18 01:45:44;;;;;;;5.22;4.43;;;;;;;20.77;59.00;101245.50;5115126;28;20366;-37
2023/06/18 01:48:11;;;;;;;4.93;4.20;;;;;;;20.71;59.76;101241.16;5114444;28;20027;-37
2023/06/18 01:50:38;;;;;;;7.25;4.70;;;;;;;20.60;59.79;101233.31;5114556;28;20057;-37
2023/06/18 01:53:06;;;;;;;6.85;4.80;;;;;;;20.52;60.54;101238.31;5113915;28;20023;-37
2023/06/18 01:55:34;;;;;;;5.78;4.50;;;;;;;20.58;60.72;101231.66;5114273;28;20092;-37
2023/06/18 01:58:00;;;;;;;5.18;4.65;;;;;;;20.47;61.38;101234.78;5114604;28;20456;-37
2023/06/18 02:00:26;;;;;;;6.82;4.28;;;;;;;20.46;60.89;101233.13;5114642;28;20391;-37
2023/06/18 02:02:51;;;;;;;5.22;4.63;;;;;;;20.48;60.86;101231.75;5114067;28;20024;-37
2023/06/18 02:05:18;;;;;;;5.63;4.90;;;;;;;20.42;61.04;101230.13;5114489;28;20374;-37
2023/06/18 02:07:43;;;;;;;5.45;4.95;;;;;;;20.36;60.96;101234.03;5114150;28;20097;-37
2023/06/18 02:10:09;;;;;;;8.48;4.90;;;;;;;20.23;61.58;101230.00;5113708;28;20035;-37
2023/06/18 02:12:35;;;;;;;9.60;4.20;;;;;;;20.23;61.92;101232.75;5113813;27;20027;-37
2023/06/18 02:15:00;;;;;;;4.85;4.35;;;;;;;20.17;62.01;101228.41;5113552;28;20387;-37
2023/06/18 02:17:26;;;;;;;5.80;4.50;;;;;;;19.98;63.36;101216.47;5113908;28;20039;-37
2023/06/18 02:19:52;;;;;;;8.38;5.65;;;;;;;20.14;62.49;101215.25;5113116;28;20027;-37
2023/06/18 02:22:17;;;;;;;5.30;4.80;;;;;;;20.17;62.38;101217.44;5113616;28;20367;-37
2023/06/18 02:24:42;;;;;;;7.63;5.50;;;;;;;19.97;61.69;101217.59;5113488;28;20031;-37
2023/06/18 02:27:08;;;;;;;7.30;5.53;;;;;;;20.04;62.85;101220.81;5113117;28;20035;-37
2023/06/18 02:29:33;;;;;;;6.60;5.72;;;;;;;20.11;62.41;101215.84;5113737;28;20028;-37
2023/06/18 02:31:59;;;;;;;5.50;4.95;;;;;;;20.08;62.93;101221.06;5113702;28;20460;-37
2023/06/18 02:34:27;;;;;;;8.20;5.32;;;;;;;20.02;62.46;101221.09;5113285;28;20023;-37
2023/06/18 02:36:52;;;;;;;6.60;5.40;;;;;;;19.93;62.65;101216.50;5113860;28;20055;-37
2023/06/18 02:39:18;;;;;;;6.25;5.47;;;;;;;19.86;63.29;101219.53;5112918;28;20023;-36
2023/06/18 02:41:44;;;;;;;9.02;6.43;;;;;;;19.83;63.48;101219.31;5113212;28;20052;-37
2023/06/18 02:44:09;;;;;;;6.22;5.60;;;;;;;19.89;63.92;101212.69;5113166;28;20034;-37
2023/06/18 02:46:35;;;;;;;7.90;5.93;;;;;;;19.87;63.69;101209.41;5113138;28;20028;-37
2023/06/18 02:49:00;;;;;;;6.82;6.13;;;;;;;19.75;63.52;101212.50;5112805;28;20062;-36
2023/06/18 02:51:26;;;;;;;9.98;6.60;;;;;;;19.89;63.37;101209.94;5113399;28;20459;-37
2023/06/18 02:53:51;;;;;;;8.18;6.72;;;;;;;19.82;63.36;101214.94;5113324;28;20055;-37
2023/06/18 02:56:17;;;;;;;9.95;6.57;;;;;;;19.75;63.46;101215.22;5113250;28;20035;-36
2023/06/18 02:58:42;;;;;;;7.68;6.97;;;;;;;19.69;63.77;101211.72;5112767;28;20455;-37
2023/06/18 03:01:08;;;;;;;9.32;6.18;;;;;;;19.63;63.94;101195.56;5113237;28;20356;-37
2023/06/18 03:03:33;;;;;;;7.35;6.38;;;;;;;19.65;64.20;101213.38;5113383;28;20027;-37
2023/06/18 03:05:59;;;;;;;7.63;6.72;;;;;;;19.65;64.43;101207.88;5113475;28;20114;-37
2023/06/18 03:08:25;;;;;;;6.90;6.22;;;;;;;19.74;63.93;101211.66;5112689;28;20019;-40
2023/06/18 03:10:50;;;;;;;7.18;6.20;;;;;;;19.64;64.65;101202.69;5113198;28;20032;-37
2023/06/18 03:13:16;;;;;;;8.18;6.63;;;;;;;19.62;63.90;101210.34;5112915;28;20066;-37
2023/06/18 03:15:41;;;;;;;7.00;6.35;;;;;;;19.65;64.41;101210.63;5112805;28;20494;-37
2023/06/18 03:18:06;;;;;;;8.10;6.32;;;;;;;19.51;64.92;101215.06;5112835;28;20149;-37
2023/06/18 03:20:33;;;;;;;7.60;6.70;;;;;;;19.43;63.86;101211.00;5112937;28;20028;-37
2023/06/18 03:22:58;;;;;;;9.13;6.60;;;;;;;19.43;64.84;101212.91;5112494;28;20458;-37
2023/06/18 03:25:24;;;;;;;9.93;7.25;;;;;;;19.42;65.05;101217.59;5112505;28;20059;-37
2023/06/18 03:27:50;;;;;;;8.60;6.72;;;;;;;19.40;65.36;101194.28;5112440;28;20118;-37
2023/06/18 03:30:16;;;;;;;8.52;6.82;;;;;;;19.45;65.30;101216.19;5113139;28;20105;-37
2023/06/18 03:32:42;;;;;;;11.60;7.13;;;;;;;19.45;65.94;101207.97;5113375;28;20024;-37
2023/06/18 03:35:08;;;;;;;7.75;6.95;;;;;;;19.36;65.74;101215.13;5113057;28;20031;-37
2023/06/18 03:37:35;;;;;;;8.43;6.68;;;;;;;19.44;65.77;101218.09;5112666;28;20031;-37
2023/06/18 03:40:03;;;;;;;8.07;7.10;;;;;;;19.35;66.05;101210.75;5112872;28;20119;-37
2023/06/18 03:42:29;;;;;;;11.07;7.05;;;;;;;19.38;66.54;101219.25;5112542;28;20029;-37
2023/06/18 03:44:54;;;;;;;10.25;7.18;;;;;;;19.43;65.87;101210.19;5112290;28;20106;-37
2023/06/18 03:47:20;;;;;;;7.60;6.82;;;;;;;19.41;65.66;101218.66;5116578;28;20138;-37
2023/06/18 03:49:45;;;;;;;8.18;7.35;;;;;;;19.39;65.96;101217.31;5116375;28;20035;-37
2023/06/18 03:52:11;;;;;;;9.65;7.35;;;;;;;19.42;64.58;101223.06;5116118;27;20035;-37
2023/06/18 03:54:36;;;;;;;10.07;8.13;;;;;;;19.46;65.87;101220.56;5116315;28;20027;-37
2023/06/18 03:57:01;;;;;;;9.70;7.85;;;;;;;19.36;65.88;101213.19;5116320;28;20375;-37
2023/06/18 03:59:28;;;;;;;8.63;7.70;;;;;;;19.48;65.41;101232.09;5116940;28;20046;-37
2023/06/18 04:01:54;;;;;;;8.55;7.65;;;;;;;19.41;65.56;101220.59;5116117;28;20023;-37
2023/06/18 04:04:19;;;;;;;11.48;8.18;;;;;;;19.42;65.35;101230.44;5115868;28;20057;-37
2023/06/18 04:06:44;;;;;;;9.32;7.97;;;;;;;19.44;65.68;101236.50;5116704;28;20043;-37
2023/06/18 04:09:10;;;;;;;10.27;7.78;;;;;;;19.47;65.74;101238.66;5115715;28;20099;-37
2023/06/18 04:11:38;;;;;;;10.45;7.57;;;;;;;19.49;64.84;101239.22;5116403;28;20027;-37
2023/06/18 04:14:04;;;;;;;8.93;8.05;;;;;;;19.42;65.15;101235.94;5115900;28;20055;-37
2023/06/18 04:16:29;;;;;;;10.13;8.18;;;;;;;19.43;64.88;101235.69;5115681;28;20027;-37
2023/06/18 04:18:54;;;;;;;11.20;7.63;;;;;;;19.38;65.93;101237.63;5115814;28;20023;-37
2023/06/18 04:21:20;;;;;;;9.48;7.82;;;;;;;19.35;65.64;101224.47;5116291;28;20047;-37
2023/06/18 04:23:46;;;;;;;9.48;8.02;;;;;;;19.44;65.91;101236.50;5116418;28;20567;-37
2023/06/18 04:26:11;;;;;;;12.63;8.52;;;;;;;19.42;65.83;101242.28;5116473;28;20028;-37
2023/06/18 04:28:36;;;;;;;9.27;8.15;;;;;;;19.42;66.56;101241.41;5115406;27;20482;-37
2023/06/18 04:31:02;;;;;;;8.82;7.93;;;;;;;19.29;65.83;101227.22;5115622;28;20110;-37
2023/06/18 04:33:27;;;;;;;9.68;8.07;;;;;;;19.47;65.89;101239.50;5114976;28;20020;-37
2023/06/18 04:35:53;;;;;;;9.07;7.95;;;;;;;19.39;65.60;101237.34;5116071;28;20042;-37
2023/06/18 04:38:18;;;;;;;8.95;8.02;;;;;;;19.45;65.51;101236.19;5116095;28;20040;-37
2023/06/18 04:40:43;;;;;;;9.77;8.40;;;;;;;19.44;65.48;101231.00;5115446;28;20032;-37
2023/06/18 04:43:09;;;;;;;8.45;7.55;;;;;;;19.45;66.33;101235.38;5115409;28;20032;-37
2023/06/18 04:45:34;;;;;;;9.10;8.18;;;;;;;19.44;65.76;101239.22;5115340;28;20049;-37
2023/06/18 04:48:02;;;;;;;13.05;8.40;;;;;;;19.51;65.05;101239.72;5115752;28;20080;-37
2023/06/18 04:50:28;;;;;;;9.70;8.70;;;;;;;19.48;65.46;101241.13;5114697;28;20121;-37
2023/06/18 04:52:53;;;;;;;15.45;8.48;;;;;;;19.42;65.98;101235.94;5114884;28;20051;-37
2023/06/18 04:55:18;;;;;;;10.07;8.48;;;;;;;19.47;65.54;101233.16;5115018;28;20435;-37
2023/06/18 04:57:44;;;;;;;10.02;8.88;;;;;;;19.37;65.04;101222.25;5114816;28;20044;-37
2023/06/18 05:00:10;;;;;;;9.70;8.38;;;;;;;19.45;65.21;101224.41;5115563;28;20122;-37
2023/06/18 05:02:35;;;;;;;11.25;8.73;;;;;;;19.53;65.60;101232.06;5115105;28;20024;-36
2023/06/18 05:05:00;;;;;;;9.98;9.07;;;;;;;19.45;64.63;101230.72;5115331;28;20051;-37
2023/06/18 05:07:26;;;;;;;10.30;8.40;;;;;;;19.49;64.29;101237.28;5115688;27;20031;-36
2023/06/18 05:09:51;;;;;;;9.30;8.40;;;;;;;19.67;64.15;101227.63;5114666;28;20093;-36
2023/06/18 05:12:16;;;;;;;9.30;8.48;;;;;;;19.69;64.40;101225.41;5115070;27;20478;-36
2023/06/18 05:14:42;;;;;;;12.57;8.85;;;;;;;19.69;63.25;101235.56;5114578;28;20050;-36
2023/06/18 05:17:07;;;;;;;17.02;9.60;;;;;;;19.62;62.05;101216.69;5115417;28;20031;-36
2023/06/18 05:19:32;;;;;;;10.63;8.88;;;;;;;19.71;62.60;101223.19;5114449;28;20332;-37
2023/06/18 05:21:58;;;;;;;10.13;8.90;;;;;;;19.72;61.48;101233.09;5114794;28;20032;-37
2023/06/18 05:24:24;;;;;;;10.48;9.23;;;;;;;19.83;62.08;101235.78;5114735;28;20019;-37
2023/06/18 05:26:49;;;;;;;10.60;8.90;;;;;;;19.83;61.87;101220.13;5114829;28;20034;-36
2023/06/18 05:29:16;;;;;;;13.40;9.20;;;;;;;19.99;61.62;101240.06;5114839;28;20089;-37
2023/06/18 05:31:41;;;;;;;13.20;8.75;;;;;;;20.11;62.45;101245.22;5113915;28;20367;-37
2023/06/18 05:34:06;;;;;;;10.00;8.90;;;;;;;20.33;61.68;101251.06;5115089;28;20023;-37
2023/06/18 05:36:32;;;;;;;10.23;9.18;;;;;;;20.41;60.15;101244.16;5114683;28;20115;-37
2023/06/18 05:39:00;;;;;;;11.07;9.63;;;;;;;20.51;57.48;101246.84;5114685;28;20344;-37
2023/06/18 05:41:26;;;;;;;10.63;9.43;;;;;;;20.66;58.23;101249.47;5114337;28;20051;-36
2023/06/18 05:43:52;;;;;;;10.00;9.00;;;;;;;20.76;56.94;101249.38;5114469;28;20390;-37
2023/06/18 05:46:17;;;;;;;11.43;9.82;;;;;;;20.93;55.64;101253.59;5114373;28;20032;-37
2023/06/18 05:48:43;;;;;;;11.35;8.98;;;;;;;21.03;56.37;101242.47;5114942;28;20034;-37
2023/06/18 05:51:08;;;;;;;10.25;8.98;;;;;;;21.23;54.39;101256.03;5114222;28;20027;-37
2023/06/18 05:53:34;;;;;;;9.98;8.65;;;;;;;21.40;54.24;101257.50;5114887;28;20081;-37
2023/06/18 05:55:59;;;;;;;9.48;8.52;;;;;;;21.48;54.88;101257.69;5114075;28;20034;-36
2023/06/18 05:58:25;;;;;;;10.52;9.45;;;;;;;21.50;53.40;101251.88;5114396;28;20475;-37
2023/06/18 06:00:51;;;;;;;14.70;9.85;;;;;;;21.46;53.45;101246.16;5113479;28;20086;-37
2023/06/18 06:03:16;;;;;;;10.15;9.15;;;;;;;21.50;53.68;101247.19;5114081;28;20024;-37
2023/06/18 06:05:42;;;;;;;9.45;8.40;;;;;;;21.69;53.04;101255.50;5113929;28;20026;-37
2023/06/18 06:08:07;;;;;;;9.43;8.45;;;;;;;21.63;50.76;101242.09;5113633;28;20448;-37
2023/06/18 06:10:33;;;;;;;9.75;8.85;;;;;;;21.68;50.79;101255.78;5114191;28;20027;-37
2023/06/18 06:12:59;;;;;;;9.30;8.40;;;;;;;21.76;50.86;101253.19;5113720;28;20024;-37
2023/06/18 06:15:24;;;;;;;9.52;8.63;;;;;;;21.77;52.29;101246.59;5113376;28;20028;-37
2023/06/18 06:17:49;;;;;;;10.70;8.73;;;;;;;21.90;51.55;101261.53;5113619;28;20081;-37
2023/06/18 06:20:15;;;;;;;12.43;9.13;;;;;;;22.02;51.17;101264.66;5113913;28;20375;-37
2023/06/18 06:22:43;;;;;;;9.60;8.70;;;;;;;22.08;49.74;101262.66;5113365;28;20502;-37
2023/06/18 06:25:09;;;;;;;9.68;8.68;;;;;;;22.15;50.83;101248.53;5113906;28;20020;-37
2023/06/18 06:27:35;;;;;;;11.60;9.43;;;;;;;22.25;50.80;101265.75;5113601;28;20386;-37
2023/06/18 06:30:01;;;;;;;10.55;9.55;;;;;;;22.31;49.79;101266.47;5113945;28;20090;-36
2023/06/18 06:32:27;;;;;;;10.55;9.38;;;;;;;22.36;49.95;101258.94;5114274;28;20023;-41
2023/06/18 06:34:53;;;;;;;12.85;9.20;;;;;;;22.42;51.30;101265.19;5113948;28;20024;-37
2023/06/18 06:37:18;;;;;;;12.20;10.40;;;;;;;22.41;49.76;101265.50;5114036;28;20089;-37
2023/06/18 06:39:43;;;;;;;13.93;9.80;;;;;;;22.34;50.91;101255.66;5113241;28;20024;-37
2023/06/18 06:42:10;;;;;;;12.80;10.45;;;;;;;22.40;48.87;101266.59;5113792;28;20084;-37
2023/06/18 06:44:35;;;;;;;11.48;10.27;;;;;;;22.36;49.39;101277.41;5113940;28;20054;-37
2023/06/18 06:47:01;;;;;;;10.55;9.55;;;;;;;22.41;49.81;101282.84;5113279;28;20035;-37
2023/06/18 06:49:26;;;;;;;10.55;9.63;;;;;;;22.39;49.65;101336.59;5113242;28;20157;-37
2023/06/18 06:51:55;;;;;;;12.68;11.52;;;;;;;22.07;52.17;101296.81;5113287;28;20055;-37
2023/06/18 06:54:21;;;;;;;16.67;10.40;;;;;;;22.09;51.98;101317.41;5112862;28;20106;-37
2023/06/18 06:56:47;;;;;;;17.25;10.23;;;;;;;22.04;52.21;101309.22;5113283;28;20061;-37
2023/06/18 06:59:13;;;;;;;12.10;9.20;;;;;;;22.02;53.61;101300.47;5113004;28;20507;-37
2023/06/18 07:01:39;;;;;;;9.60;8.63;;;;;;;21.96;51.61;101298.91;5113537;28;20094;-36
2023/06/18 07:04:05;;;;;;;11.77;8.15;;;;;;;21.97;51.83;101311.56;5112712;28;20035;-36
2023/06/18 07:06:31;;;;;;;12.25;7.88;;;;;;;22.00;51.80;101316.44;5113509;28;20057;-36
2023/06/18 07:08:57;;;;;;;8.63;7.82;;;;;;;22.09;51.34;101320.19;5112924;28;20441;-36
2023/06/18 07:11:23;;;;;;;7.68;6.57;;;;;;;22.07;50.53;101318.84;5113686;28;20031;-37
2023/06/18 07:13:48;;;;;;;9.20;7.00;;;;;;;22.15;51.49;101309.94;5112736;28;20198;-37
2023/06/18 07:16:14;;;;;;;8.82;6.70;;;;;;;22.18;50.99;101303.84;5113206;28;20097;-37
2023/06/18 07:18:39;;;;;;;10.63;6.68;;;;;;;22.29;50.94;101310.84;5112636;28;20023;-36
2023/06/18 07:21:05;;;;;;;10.02;7.00;;;;;;;22.34;49.90;101304.44;5114503;28;20035;-37
2023/06/18 07:23:30;;;;;;;9.13;5.70;;;;;;;22.44;50.44;101308.97;5116662;28;20026;-37
2023/06/18 07:25:55;;;;;;;9.15;5.60;;;;;;;22.54;50.07;101311.56;5117852;28;20051;-37
2023/06/18 07:28:21;;;;;;;8.35;5.45;;;;;;;22.56;48.99;101299.13;5117121;28;20032;-37
2023/06/18 07:30:46;;;;;;;6.30;4.90;;;;;;;22.60;48.96;101302.91;5117441;28;20042;-37
2023/06/18 07:33:11;;;;;;;6.82;4.95;;;;;;;22.69;47.85;101294.75;5117018;28;20447;-37
2023/06/18 07:35:37;;;;;;;6.93;4.68;;;;;;;22.79;48.36;101307.56;5116829;28;20070;-36
2023/06/18 07:38:02;;;;;;;7.20;5.57;;;;;;;22.84;48.38;101302.78;5116462;28;20076;-36
2023/06/18 07:40:30;;;;;;;6.63;4.50;;;;;;;22.84;47.51;101301.97;5117153;28;20020;-36
2023/06/18 07:42:56;;;;;;;6.72;4.63;;;;;;;23.01;47.42;101291.22;5116567;28;20383;-37
2023/06/18 07:45:21;;;;;;;7.22;4.32;;;;;;;23.17;47.24;101305.53;5116833;28;20027;-37
2023/06/18 07:47:46;;;;;;;5.95;4.38;;;;;;;23.18;47.16;101298.91;5116844;28;20032;-37
2023/06/18 07:50:12;;;;;;;7.78;4.90;;;;;;;23.32;47.13;101296.13;5116546;28;20035;-37
2023/06/18 07:52:37;;;;;;;4.75;4.25;;;;;;;23.46;47.73;101307.19;5117087;28;20036;-37
2023/06/18 07:55:03;;;;;;;8.00;4.80;;;;;;;23.55;46.95;101300.66;5116202;28;20140;-37
2023/06/18 07:57:28;;;;;;;7.45;4.68;;;;;;;23.64;46.76;101303.53;5116353;28;20110;-37
2023/06/18 07:59:54;;;;;;;5.75;4.68;;;;;;;23.68;46.22;101299.03;5116498;28;20054;-37
2023/06/18 08:02:19;;;;;;;6.05;4.57;;;;;;;23.66;47.55;101297.69;5116304;28;20386;-37
2023/06/18 08:04:44;;;;;;;5.15;3.88;;;;;;;23.82;47.52;101290.75;5116449;28;20027;-37
2023/06/18 08:07:10;;;;;;;5.75;4.40;;;;;;;23.75;47.23;101271.00;5116689;28;20173;-37
2023/06/18 08:09:35;;;;;;;5.13;4.45;;;;;;;23.86;48.14;101292.59;5116116;28;20063;-38
2023/06/18 08:12:00;;;;;;;4.78;4.20;;;;;;;23.98;48.32;101285.69;5116102;28;20027;-37
2023/06/18 08:14:27;;;;;;;5.60;4.03;;;;;;;23.98;47.67;101286.50;5115878;28;20062;-37
2023/06/18 08:16:52;;;;;;;7.15;4.30;;;;;;;24.17;47.00;101280.03;5116396;27;20034;-38
2023/06/18 08:19:18;;;;;;;6.90;4.38;;;;;;;24.18;46.98;101285.22;5116523;27;20439;-37
2023/06/18 08:21:43;;;;;;;5.85;4.05;;;;;;;24.29;46.72;101283.03;5115912;28;20100;-37
2023/06/18 08:24:08;;;;;;;6.32;4.10;;;;;;;24.34;47.10;101272.66;5115835;28;20032;-37
2023/06/18 08:26:34;;;;;;;7.38;4.10;;;;;;;24.47;46.11;101281.25;5116201;28;20114;-38
2023/06/18 08:28:59;;;;;;;5.25;3.88;;;;;;;24.52;46.70;101276.41;5115711;28;20030;-38
2023/06/18 08:31:25;;;;;;;8.65;4.43;;;;;;;24.65;47.03;101274.72;5115224;28;20027;-37
2023/06/18 08:33:50;;;;;;;8.77;3.88;;;;;;;24.63;47.02;101268.69;5115884;28;20072;-37
2023/06/18 08:36:18;;;;;;;5.53;3.75;;;;;;;24.67;46.90;101269.69;5116049;28;20085;-37
2023/06/18 08:38:43;;;;;;;5.88;3.72;;;;;;;24.75;47.18;101271.69;5115515;28;20429;-37
2023/06/18 08:41:11;;;;;;;4.40;3.90;;;;;;;24.79;47.23;101272.69;5115804;28;20183;-37
2023/06/18 08:43:37;;;;;;;6.53;4.05;;;;;;;24.73;47.42;101273.13;5115353;28;20470;-37
2023/06/18 08:46:10;;;;;;;5.43;3.60;;;;;;;24.69;47.92;101275.69;5115186;27;20068;-37
2023/06/18 08:48:57;;;;;;;4.53;3.42;;;;;;;24.77;48.16;101269.41;5115111;28;20035;-37
2023/06/18 08:51:23;;;;;;;;;;;;;;;24.91;48.24;101270.16;5116048;28;20543;-37
2023/06/18 08:54:14;;;;;;;4.97;3.80;;;;;;;24.81;48.15;101269.59;5115197;28;20024;-37
2023/06/18 08:56:43;;;;;;;5.75;3.88;;;;;;;24.78;48.51;101270.22;5115614;28;20111;-37
2023/06/18 08:59:10;;;;;;;5.13;3.40;;;;;;;24.67;49.38;101264.97;5115040;28;20074;-37
2023/06/18 09:01:37;;;;;;;4.32;3.50;;;;;;;24.72;49.48;101268.75;5115733;28;20032;-37
2023/06/18 09:04:04;;;;;;;5.45;3.70;;;;;;;24.65;49.20;101267.25;5114784;28;20035;-37
2023/06/18 09:06:30;;;;;;;4.30;3.50;;;;;;;24.59;49.50;101262.94;5115210;28;20077;-37
2023/06/18 09:08:57;;;;;;;5.65;3.30;;;;;;;24.60;50.07;101274.84;5115116;28;20498;-37
2023/06/18 09:11:23;;;;;;;5.72;3.40;;;;;;;24.60;50.68;101264.59;5115029;28;20046;-37
2023/06/18 09:13:49;;;;;;;4.88;4.07;;;;;;;24.62;50.65;101278.09;5115026;28;20036;-37
2023/06/18 09:16:14;;;;;;;5.22;3.20;;;;;;;24.52;50.83;101268.13;5114865;28;20495;-37
2023/06/18 09:18:40;;;;;;;4.25;3.38;;;;;;;24.55;50.30;101267.50;5114461;28;20108;-37
2023/06/18 09:21:06;;;;;;;4.50;3.55;;;;;;;24.49;50.29;101276.22;5115115;28;20468;-37
2023/06/18 09:23:32;;;;;;;4.30;3.47;;;;;;;24.35;51.40;101268.78;5114643;28;20035;-37
2023/06/18 09:25:58;;;;;;;6.78;3.50;;;;;;;24.38;52.21;101276.47;5114337;28;20052;-37
2023/06/18 09:28:25;;;;;;;8.05;3.53;;;;;;;24.44;51.95;101279.13;5114299;28;20023;-37
2023/06/18 09:30:52;;;;;;;4.97;4.22;;;;;;;24.38;51.47;101275.66;5114818;28;20032;-37
2023/06/18 09:33:46;;;;;;;4.88;3.85;;;;;;;24.46;51.33;101279.63;5114202;28;20473;-37
2023/06/18 09:36:12;;;;;;;4.78;3.60;;;;;;;24.42;52.25;101278.63;5101173;28;20070;-37
2023/06/18 09:38:40;;;;;;;6.05;3.67;;;;;;;24.37;52.02;101282.31;5114303;28;20412;-37
2023/06/18 09:41:17;;;;;;;4.35;3.78;;;;;;;24.22;53.11;101279.91;5113560;28;20451;-37
2023/06/18 09:43:51;;;;;;;7.78;3.60;;;;;;;24.25;53.73;101284.78;5113546;28;20054;-37
2023/06/18 09:46:18;;;;;;;5.75;3.47;;;;;;;24.29;54.22;101278.31;5114972;28;20034;-37
2023/06/18 09:48:45;;;;;;;6.50;3.78;;;;;;;24.30;53.76;101279.13;5114214;28;20110;-37
2023/06/18 09:51:14;;;;;;;3.67;2.92;;;;;;;24.34;54.43;101283.72;5114446;28;20042;-37
2023/06/18 09:53:40;;;;;;;6.60;3.55;;;;;;;24.34;52.06;101278.19;5114258;28;20031;-37
2023/06/18 09:56:16;;;;;;;5.72;3.63;;;;;;;24.31;52.02;101273.31;5113822;28;20038;-37
2023/06/18 09:58:49;;;;;;;4.15;3.28;;;;;;;24.28;52.33;101273.94;5113794;28;20029;-37
2023/06/18 10:01:16;;;;;;;6.72;3.50;;;;;;;24.23;53.33;101276.81;5113620;28;20032;-37
2023/06/18 10:03:43;;;;;;;5.15;3.58;;;;;;;24.25;53.45;101279.25;5114176;28;20045;-37
2023/06/18 10:06:27;;;;;;;7.28;3.80;;;;;;;24.28;53.93;101284.16;5114281;28;20439;-37
2023/06/18 10:08:55;;;;;;;5.75;3.92;;;;;;;24.26;56.03;101280.91;5113825;28;20047;-37
2023/06/18 10:11:21;;;;;;;3.85;3.55;;;;;;;24.27;55.96;101277.81;5114432;28;20371;-37
2023/06/18 10:13:48;;;;;;;4.10;3.55;;;;;;;24.18;57.83;101267.84;5113760;28;20044;-37
2023/06/18 10:16:17;;;;;;;6.85;4.00;;;;;;;24.14;58.96;101278.69;5112847;28;20058;-37
2023/06/18 10:19:02;;;;;;;5.72;4.20;;;;;;;24.17;58.34;101271.72;5113903;28;20038;-37
2023/06/18 10:21:28;;;;;;;5.05;4.00;;;;;;;24.09;59.05;101267.75;5113814;28;20045;-37
2023/06/18 10:24:07;;;;;;;7.20;3.92;;;;;;;24.07;60.50;101264.50;5113394;28;20055;-37
2023/06/18 10:26:36;;;;;;;4.20;3.80;;;;;;;24.11;60.11;101266.31;5113786;28;20031;-37
2023/06/18 10:29:02;;;;;;;4.68;3.80;;;;;;;24.16;62.75;101257.09;5113567;28;20055;-37
2023/06/18 10:31:28;;;;;;;6.20;3.85;;;;;;;24.08;63.50;101250.38;5114080;28;20470;-37
2023/06/18 10:33:56;;;;;;;4.93;3.60;;;;;;;24.05;59.91;101244.63;5113422;28;20020;-37
2023/06/18 10:36:21;;;;;;;7.35;3.88;;;;;;;24.01;58.92;101244.47;5113397;28;20023;-37
2023/06/18 10:38:47;;;;;;;5.88;3.70;;;;;;;24.08;58.64;101244.03;5113122;28;20077;-37
2023/06/18 10:41:18;;;;;;;5.80;4.10;;;;;;;24.08;59.82;101235.75;5113518;28;20332;-37
2023/06/18 10:43:48;;;;;;;5.13;3.97;;;;;;;24.07;59.27;101226.63;5113462;28;20162;-37
2023/06/18 10:46:14;;;;;;;4.70;3.80;;;;;;;24.02;57.38;101225.94;5113327;28;20337;-37
2023/06/18 10:48:40;;;;;;;5.25;3.70;;;;;;;24.08;59.07;101224.69;5113007;28;20035;-37
2023/06/18 10:51:13;;;;;;;8.50;4.22;;;;;;;24.15;60.20;101214.00;5113006;28;20023;-37
2023/06/18 10:53:39;;;;;;;4.75;4.25;;;;;;;24.20;59.82;101204.78;5113157;28;20506;-37
2023/06/18 10:56:04;;;;;;;4.40;3.85;;;;;;;24.27;60.61;101207.94;5112980;28;20053;-37
2023/06/18 10:58:34;;;;;;;5.00;3.80;;;;;;;24.25;57.41;101204.66;5112833;28;20398;-37
2023/06/18 11:01:00;;;;;;;4.75;4.20;;;;;;;24.23;57.87;101210.50;5113395;28;20052;-37
2023/06/18 11:03:33;;;;;;;4.47;3.85;;;;;;;24.05;58.13;101183.88;5112939;28;20130;-37
2023/06/18 11:06:01;;;;;;;4.45;3.80;;;;;;;24.19;57.13;101214.19;5113610;28;20055;-37
2023/06/18 11:08:29;;;;;;;5.95;3.83;;;;;;;24.15;55.86;101219.53;5112799;28;20024;-37
2023/06/18 11:11:03;;;;;;;4.63;4.00;;;;;;;24.31;55.82;101223.56;5113033;28;20039;-37
2023/06/18 11:13:34;;;;;;;6.15;3.80;;;;;;;24.46;58.21;101229.88;5112520;28;20545;-37
2023/06/18 11:16:02;;;;;;;4.30;3.90;;;;;;;24.54;56.67;101221.63;5113538;28;20066;-37
2023/06/18 11:18:29;;;;;;;5.88;3.85;;;;;;;24.72;57.71;101221.72;5112487;28;20030;-37
2023/06/18 11:20:56;;;;;;;5.18;3.78;;;;;;;24.67;55.23;101217.16;5113736;28;20028;-37
2023/06/18 11:23:23;;;;;;;4.55;4.00;;;;;;;24.83;57.64;101212.81;5113528;28;20063;-37